createdAt,value
2023-03-08T00:02:22.374Z,89.10
2023-03-08T00:04:51.751Z,88.63
2023-03-08T00:07:21.032Z,87.73
2023-03-08T00:09:50.235Z,88.39
2023-03-08T00:12:20.115Z,88.33
2023-03-08T00:14:49.543Z,88.21
2023-03-08T00:17:21.728Z,88.91
2023-03-08T00:19:53.882Z,88.36
2023-03-08T00:22:23.127Z,87.63
2023-03-08T00:24:52.347Z,88.98
2023-03-08T00:27:21.621Z,88.81
2023-03-08T00:29:50.859Z,89.10
2023-03-08T00:32:22.758Z,89.48
2023-03-08T00:34:53.718Z,90.21
2023-03-08T00:37:23.611Z,89.95
2023-03-08T00:39:54.668Z,89.22
2023-03-08T00:42:24.619Z,88.98
2023-03-08T00:44:54.194Z,89.70
2023-03-08T00:47:26.004Z,90.53
2023-03-08T00:49:55.276Z,90.00
2023-03-08T00:52:24.510Z,89.05
2023-03-08T00:54:53.726Z,88.75
2023-03-08T00:57:22.946Z,88.89
2023-03-08T00:59:52.186Z,88.44
2023-03-08T01:02:24.115Z,89.69
2023-03-08T01:04:56.135Z,89.07
2023-03-08T01:07:26.589Z,89.58
2023-03-08T01:09:57.079Z,89.16
2023-03-08T01:12:26.766Z,88.49
2023-03-08T01:14:56.295Z,89.26
2023-03-08T01:17:25.566Z,89.28
2023-03-08T01:19:57.694Z,89.75
2023-03-08T01:22:26.976Z,89.59
2023-03-08T01:24:56.222Z,89.07
2023-03-08T01:27:25.489Z,90.31
2023-03-08T01:29:54.723Z,90.66
2023-03-08T01:32:24.031Z,91.20
2023-03-08T01:34:53.407Z,90.00
2023-03-08T01:37:25.250Z,89.84
2023-03-08T01:39:54.516Z,90.44
2023-03-08T01:42:23.766Z,90.07
2023-03-08T01:44:55.537Z,90.24
2023-03-08T01:47:27.593Z,89.72
2023-03-08T01:50:00.448Z,90.11
2023-03-08T01:52:37.226Z,90.07
2023-03-08T01:55:10.454Z,90.26
2023-03-08T01:57:43.568Z,91.23
2023-03-08T02:00:16.721Z,90.72
2023-03-08T02:02:50.628Z,91.04
2023-03-08T02:05:21.444Z,91.32
2023-03-08T02:07:53.287Z,90.79
2023-03-08T02:10:23.519Z,91.23
2023-03-08T02:12:53.127Z,92.10
2023-03-08T02:15:24.292Z,91.71
2023-03-08T02:17:53.565Z,93.49
2023-03-08T02:20:28.354Z,93.40
2023-03-08T02:23:10.078Z,93.79
2023-03-08T02:25:39.416Z,93.09
2023-03-08T02:28:09.276Z,93.13
2023-03-08T02:30:40.682Z,93.47
2023-03-08T02:33:09.986Z,93.26
2023-03-08T02:35:42.657Z,93.54
2023-03-08T02:38:17.012Z,93.92
2023-03-08T02:40:46.861Z,93.97
2023-03-08T02:43:16.240Z,95.08
2023-03-08T02:45:45.540Z,95.59
2023-03-08T02:48:15.364Z,94.46
2023-03-08T02:50:44.759Z,95.97
2023-03-08T02:53:16.632Z,96.40
2023-03-08T02:55:45.908Z,96.29
2023-03-08T02:58:15.153Z,95.90
2023-03-08T03:00:44.406Z,96.31
2023-03-08T03:03:13.775Z,96.75
2023-03-08T03:05:44.262Z,97.08
2023-03-08T03:08:16.173Z,95.99
2023-03-08T03:10:45.430Z,96.78
2023-03-08T03:13:14.809Z,97.23
2023-03-08T03:15:44.064Z,96.78
2023-03-08T03:18:13.341Z,96.33
2023-03-08T03:20:42.737Z,96.94
2023-03-08T03:23:12.045Z,97.10
2023-03-08T03:25:43.926Z,97.39
2023-03-08T03:28:13.174Z,97.60
2023-03-08T03:30:42.716Z,97.23
2023-03-08T03:33:11.981Z,97.01
2023-03-08T03:35:41.303Z,96.91
2023-03-08T03:38:10.574Z,97.80
2023-03-08T03:40:39.800Z,98.03
2023-03-08T03:43:12.143Z,98.15
2023-03-08T03:45:41.426Z,98.26
2023-03-08T03:48:10.658Z,98.66
2023-03-08T03:50:39.917Z,99.52
2023-03-08T03:53:09.175Z,99.09
2023-03-08T03:55:38.394Z,98.72
2023-03-08T03:58:07.606Z,98.57
2023-03-08T04:00:39.411Z,98.63
2023-03-08T04:03:08.760Z,97.73
2023-03-08T04:05:38.025Z,96.70
2023-03-08T04:08:07.861Z,96.27
2023-03-08T04:10:37.839Z,95.38
2023-03-08T04:13:07.086Z,95.86
2023-03-08T04:15:38.909Z,96.03
2023-03-08T04:18:08.218Z,95.47
2023-03-08T04:20:37.436Z,94.93
2023-03-08T04:23:06.663Z,95.39
2023-03-08T04:25:35.894Z,96.08
2023-03-08T04:28:05.145Z,96.09
2023-03-08T04:30:39.587Z,96.74
2023-03-08T04:33:09.312Z,96.71
2023-03-08T04:35:38.565Z,97.72
2023-03-08T04:38:08.222Z,96.43
2023-03-08T04:40:57.885Z,97.08
2023-03-08T04:43:27.495Z,97.27
2023-03-08T04:45:59.271Z,98.63
2023-03-08T04:48:28.874Z,98.85
2023-03-08T04:51:00.203Z,99.07
2023-03-08T04:53:30.513Z,99.25
2023-03-08T04:56:00.668Z,98.46
2023-03-08T04:58:30.178Z,98.42
2023-03-08T05:01:04.623Z,97.96
2023-03-08T05:03:33.902Z,99.07
2023-03-08T05:06:03.140Z,99.24
2023-03-08T05:08:32.380Z,98.42
2023-03-08T05:11:04.695Z,98.28
2023-03-08T05:13:36.832Z,97.55
2023-03-08T05:16:10.476Z,98.48
2023-03-08T05:18:39.721Z,98.26
2023-03-08T05:21:13.854Z,97.51
2023-03-08T05:23:43.450Z,96.44
2023-03-08T05:26:15.652Z,97.09
2023-03-08T05:28:45.490Z,96.96
2023-03-08T05:31:19.371Z,97.35
2023-03-08T05:33:51.089Z,96.81
2023-03-08T05:36:21.091Z,95.99
2023-03-08T05:38:50.783Z,95.41
2023-03-08T05:41:20.001Z,95.92
2023-03-08T05:43:49.559Z,95.74
2023-03-08T05:46:22.646Z,97.64
2023-03-08T05:48:51.903Z,97.32
2023-03-08T05:51:22.109Z,97.78
2023-03-08T05:53:51.340Z,96.43
2023-03-08T05:56:23.046Z,96.46
2023-03-08T05:58:52.946Z,95.25
2023-03-08T06:01:27.173Z,96.14
2023-03-08T06:03:58.014Z,95.75
2023-03-08T06:06:28.921Z,95.59
2023-03-08T06:08:58.522Z,95.31
2023-03-08T06:11:28.020Z,96.00
2023-03-08T06:13:57.270Z,95.96
2023-03-08T06:16:29.137Z,95.15
2023-03-08T06:18:58.438Z,95.38
2023-03-08T06:21:27.865Z,95.69
2023-03-08T06:23:57.121Z,94.89
2023-03-08T06:26:26.442Z,94.97
2023-03-08T06:28:55.654Z,94.99
2023-03-08T06:31:25.013Z,95.41
2023-03-08T06:33:56.877Z,96.65
2023-03-08T06:36:26.362Z,95.54
2023-03-08T06:38:55.666Z,95.11
2023-03-08T06:41:24.887Z,95.50
2023-03-08T06:43:54.195Z,95.93
2023-03-08T06:46:23.555Z,95.05
2023-03-08T06:48:54.102Z,94.37
2023-03-08T06:51:25.918Z,95.16
2023-03-08T06:53:55.140Z,95.39
2023-03-08T06:56:24.368Z,95.87
2023-03-08T06:58:53.743Z,96.46
2023-03-08T07:01:23.062Z,96.68
2023-03-08T07:03:53.398Z,96.67
2023-03-08T07:06:22.612Z,97.02
2023-03-08T07:08:54.409Z,96.80
2023-03-08T07:11:23.664Z,95.90
2023-03-08T07:13:52.938Z,96.22
2023-03-08T07:16:22.242Z,96.53
2023-03-08T07:18:51.491Z,96.22
2023-03-08T07:21:20.797Z,96.06
2023-03-08T07:23:49.994Z,96.39
2023-03-08T07:26:21.849Z,96.48
2023-03-08T07:28:52.549Z,96.97
2023-03-08T07:31:21.811Z,95.63
2023-03-08T07:33:51.038Z,96.16
2023-03-08T07:36:20.412Z,96.43
2023-03-08T07:38:49.840Z,96.31
2023-03-08T07:41:21.628Z,96.16
2023-03-08T07:43:50.863Z,96.19
2023-03-08T07:46:20.173Z,97.05
2023-03-08T07:48:49.442Z,96.41
2023-03-08T07:51:20.341Z,96.82
2023-03-08T07:53:49.550Z,96.57
2023-03-08T07:56:18.757Z,96.93
2023-03-08T07:58:50.573Z,96.66
2023-03-08T08:01:19.812Z,96.80
2023-03-08T08:03:49.184Z,96.16
2023-03-08T08:06:18.481Z,96.84
2023-03-08T08:08:47.689Z,96.67
2023-03-08T08:11:19.882Z,95.54
2023-03-08T08:13:52.074Z,95.60
2023-03-08T08:16:21.515Z,95.74
2023-03-08T08:18:50.770Z,95.63
2023-03-08T08:21:20.157Z,95.66
2023-03-08T08:23:50.218Z,95.68
2023-03-08T08:26:22.626Z,96.55
2023-03-08T08:28:56.775Z,97.74
2023-03-08T08:31:28.937Z,97.72
2023-03-08T08:33:58.166Z,98.39
2023-03-08T08:36:28.038Z,98.70
2023-03-08T08:38:57.313Z,98.49
2023-03-08T08:41:28.050Z,98.18
2023-03-08T08:44:01.129Z,97.88
2023-03-08T08:46:34.120Z,97.81
2023-03-08T08:49:05.405Z,97.00
2023-03-08T08:51:35.004Z,97.08
2023-03-08T08:54:04.434Z,97.14
2023-03-08T08:56:34.509Z,97.00
2023-03-08T08:59:06.344Z,96.84
2023-03-08T09:01:37.020Z,97.12
2023-03-08T09:04:06.309Z,97.08
2023-03-08T09:06:35.862Z,97.01
2023-03-08T09:09:05.597Z,96.77
2023-03-08T09:11:42.166Z,96.80
2023-03-08T09:14:20.455Z,97.60
2023-03-08T09:16:49.716Z,98.08
2023-03-08T09:19:19.072Z,98.34
2023-03-08T09:21:48.332Z,99.09
2023-03-08T09:24:17.589Z,99.59
2023-03-08T09:26:46.809Z,99.97
2023-03-08T09:29:16.056Z,99.06
2023-03-08T09:31:48.058Z,99.83
2023-03-08T09:34:17.397Z,100.00
2023-03-08T09:36:46.622Z,99.89
2023-03-08T09:39:16.661Z,100.00
2023-03-08T09:41:58.227Z,100.00
2023-03-08T09:44:46.988Z,100.00
2023-03-08T09:47:29.233Z,100.00
2023-03-08T09:50:04.318Z,98.54
2023-03-08T09:52:38.567Z,98.08
2023-03-08T09:55:15.517Z,98.08
2023-03-08T09:57:49.916Z,96.85
2023-03-08T10:00:23.569Z,96.99
2023-03-08T10:03:06.280Z,98.34
2023-03-08T10:05:40.339Z,99.76
2023-03-08T10:08:16.235Z,99.04
2023-03-08T10:10:53.774Z,98.02
2023-03-08T10:13:32.068Z,97.54
2023-03-08T10:16:09.441Z,97.64
2023-03-08T10:18:46.027Z,97.44
2023-03-08T10:21:17.781Z,97.54
2023-03-08T10:23:49.422Z,96.05
2023-03-08T10:26:19.295Z,96.45
2023-03-08T10:28:48.589Z,95.86
2023-03-08T10:31:27.044Z,95.47
2023-03-08T10:34:06.260Z,95.38
2023-03-08T10:36:35.656Z,94.38
2023-03-08T10:39:09.886Z,95.23
2023-03-08T10:41:43.668Z,95.95
2023-03-08T10:44:17.256Z,96.18
2023-03-08T10:46:52.016Z,96.11
2023-03-08T10:49:28.050Z,95.56
2023-03-08T10:51:59.412Z,95.41
2023-03-08T10:54:30.514Z,95.04
2023-03-08T10:57:02.479Z,94.94
2023-03-08T10:59:34.942Z,94.85
2023-03-08T11:02:18.358Z,94.28
2023-03-08T11:04:57.137Z,95.14
2023-03-08T11:07:30.294Z,94.40
2023-03-08T11:10:18.616Z,94.52
2023-03-08T11:12:48.442Z,94.45
2023-03-08T11:15:19.082Z,93.86
2023-03-08T11:17:57.798Z,95.37
2023-03-08T11:20:33.888Z,95.43
2023-03-08T11:23:19.355Z,94.63
2023-03-08T11:25:51.174Z,92.97
2023-03-08T11:28:36.222Z,92.81
2023-03-08T11:31:16.506Z,93.38
2023-03-08T11:33:58.130Z,92.76
2023-03-08T11:36:35.107Z,91.20
2023-03-08T11:39:13.599Z,90.91
2023-03-08T11:41:50.169Z,90.21
2023-03-08T11:44:32.286Z,89.27
2023-03-08T11:47:34.407Z,90.61
2023-03-08T11:50:08.247Z,90.34
2023-03-08T11:52:46.745Z,91.00
2023-03-08T11:55:34.467Z,91.54
2023-03-08T11:58:09.957Z,90.99
2023-03-08T12:00:42.808Z,92.18
2023-03-08T12:03:18.237Z,92.14
2023-03-08T12:05:52.964Z,93.47
2023-03-08T12:08:30.344Z,90.52
2023-03-08T12:11:04.226Z,90.37
2023-03-08T12:13:37.530Z,91.20
2023-03-08T12:16:13.680Z,90.84
2023-03-08T12:18:47.885Z,88.13
2023-03-08T12:21:29.803Z,88.67
2023-03-08T12:24:14.515Z,88.59
2023-03-08T12:26:48.676Z,87.59
2023-03-08T12:29:23.805Z,89.22
2023-03-08T12:31:54.517Z,88.92
2023-03-08T12:34:31.726Z,87.24
2023-03-08T12:37:00.987Z,87.16
2023-03-08T12:39:35.038Z,86.42
2023-03-08T12:42:17.416Z,86.32
2023-03-08T12:44:47.110Z,88.53
2023-03-08T12:47:24.772Z,88.72
2023-03-08T12:49:56.799Z,90.16
2023-03-08T12:52:30.418Z,89.67
2023-03-08T12:55:05.970Z,89.69
2023-03-08T12:57:42.832Z,89.97
2023-03-08T13:00:28.373Z,89.23
2023-03-08T13:03:07.141Z,88.46
2023-03-08T13:05:38.691Z,87.59
2023-03-08T13:08:26.002Z,87.68
2023-03-08T13:11:03.681Z,86.18
2023-03-08T13:13:41.857Z,85.97
2023-03-08T13:16:23.453Z,86.56
2023-03-08T13:19:03.326Z,86.96
2023-03-08T13:21:36.553Z,87.56
2023-03-08T13:24:12.043Z,84.48
2023-03-08T13:27:11.157Z,84.69
2023-03-08T13:29:40.797Z,85.58
2023-03-08T13:32:16.200Z,85.32
2023-03-08T13:34:47.097Z,85.22
2023-03-08T13:37:24.464Z,84.43
2023-03-08T13:39:58.246Z,85.04
2023-03-08T13:42:31.603Z,84.55
2023-03-08T13:45:12.949Z,83.68
2023-03-08T13:47:42.250Z,83.71
2023-03-08T13:50:20.861Z,82.75
2023-03-08T13:52:50.897Z,82.84
2023-03-08T13:55:23.613Z,81.84
2023-03-08T13:57:56.442Z,83.00
2023-03-08T14:00:32.539Z,81.14
2023-03-08T14:03:03.481Z,80.08
2023-03-08T14:05:36.456Z,80.63
2023-03-08T14:08:07.912Z,79.73
2023-03-08T14:10:43.356Z,81.76
2023-03-08T14:13:21.482Z,81.20
2023-03-08T14:15:53.144Z,82.70
2023-03-08T14:18:25.035Z,83.33
2023-03-08T14:21:06.038Z,82.25
2023-03-08T14:23:38.557Z,82.78
2023-03-08T14:26:08.102Z,81.64
2023-03-08T14:28:42.255Z,80.29
2023-03-08T14:31:28.056Z,81.92
2023-03-08T14:34:00.307Z,82.66
2023-03-08T14:36:32.146Z,83.63
2023-03-08T14:39:02.653Z,82.50
2023-03-08T14:41:34.042Z,80.81
2023-03-08T14:44:07.865Z,80.29
2023-03-08T14:46:37.152Z,80.49
2023-03-08T14:49:07.798Z,81.38
2023-03-08T14:51:42.643Z,82.66
2023-03-08T14:54:24.879Z,83.47
2023-03-08T14:56:54.097Z,83.43
2023-03-08T14:59:28.106Z,84.03
2023-03-08T15:01:57.856Z,83.74
2023-03-08T15:04:28.304Z,83.03
2023-03-08T15:06:57.673Z,82.09
2023-03-08T15:09:29.404Z,82.41
2023-03-08T15:12:00.834Z,82.27
2023-03-08T15:14:32.648Z,82.67
2023-03-08T15:17:01.845Z,81.86
2023-03-08T15:19:31.078Z,81.89
2023-03-08T15:22:01.502Z,81.11
2023-03-08T15:24:30.909Z,81.83
2023-03-08T15:27:00.112Z,82.20
2023-03-08T15:29:33.728Z,83.46
2023-03-08T15:32:03.196Z,80.71
2023-03-08T15:34:32.632Z,81.71
2023-03-08T15:37:02.044Z,82.01
2023-03-08T15:39:31.415Z,82.16
2023-03-08T15:42:00.861Z,81.43
2023-03-08T15:44:32.804Z,80.89
2023-03-08T15:47:02.092Z,80.26
2023-03-08T15:49:31.373Z,80.14
2023-03-08T15:52:00.613Z,79.76
2023-03-08T15:54:31.772Z,78.99
2023-03-08T15:57:01.070Z,79.03
2023-03-08T15:59:32.860Z,79.14
2023-03-08T16:02:02.427Z,79.15
2023-03-08T16:04:31.727Z,78.38
2023-03-08T16:07:00.997Z,77.96
2023-03-08T16:09:30.194Z,78.58
2023-03-08T16:11:59.429Z,78.46
2023-03-08T16:14:28.650Z,77.88
2023-03-08T16:17:00.541Z,77.15
2023-03-08T16:19:34.007Z,77.45
2023-03-08T16:22:03.894Z,78.12
2023-03-08T16:24:33.463Z,76.96
2023-03-08T16:27:04.421Z,77.47
2023-03-08T16:29:35.141Z,76.33
2023-03-08T16:32:07.502Z,76.48
2023-03-08T16:34:37.737Z,76.54
2023-03-08T16:37:07.269Z,76.71
2023-03-08T16:39:36.449Z,77.18
2023-03-08T16:42:05.689Z,76.96
2023-03-08T16:44:34.873Z,76.96
2023-03-08T16:47:06.770Z,77.48
2023-03-08T16:49:36.282Z,78.14
2023-03-08T16:52:05.699Z,77.88
2023-03-08T16:54:34.943Z,77.82
2023-03-08T16:57:18.205Z,78.42
2023-03-08T16:59:48.310Z,78.05
2023-03-08T17:02:21.561Z,77.91
2023-03-08T17:04:51.861Z,77.87
2023-03-08T17:07:21.316Z,77.78
2023-03-08T17:09:50.971Z,78.26
2023-03-08T17:12:20.214Z,78.94
2023-03-08T17:14:49.446Z,79.18
2023-03-08T17:17:21.274Z,79.53
2023-03-08T17:19:54.042Z,78.82
2023-03-08T17:22:23.246Z,79.20
2023-03-08T17:24:52.459Z,79.58
2023-03-08T17:27:22.262Z,79.66
2023-03-08T17:29:51.510Z,80.16
2023-03-08T17:32:23.433Z,79.45
2023-03-08T17:34:52.784Z,79.02
2023-03-08T17:37:23.023Z,79.81
2023-03-08T17:39:52.411Z,79.67
2023-03-08T17:42:21.626Z,79.32
2023-03-08T17:44:50.831Z,79.33
2023-03-08T17:47:22.711Z,79.50
2023-03-08T17:49:51.946Z,79.59
2023-03-08T17:52:21.191Z,79.36
2023-03-08T17:54:51.042Z,79.17
2023-03-08T17:57:21.773Z,78.75
2023-03-08T17:59:51.703Z,79.55
2023-03-08T18:02:23.764Z,79.48
2023-03-08T18:04:55.870Z,79.10
2023-03-08T18:07:27.757Z,79.28
2023-03-08T18:09:57.154Z,79.49
2023-03-08T18:12:26.364Z,79.99
2023-03-08T18:14:55.600Z,79.19
2023-03-08T18:17:27.494Z,79.21
2023-03-08T18:19:56.746Z,79.43
2023-03-08T18:22:25.997Z,79.18
2023-03-08T18:24:55.269Z,79.20
2023-03-08T18:27:24.486Z,79.13
2023-03-08T18:29:53.695Z,79.30
2023-03-08T18:32:23.050Z,78.74
2023-03-08T18:34:54.850Z,78.32
2023-03-08T18:37:24.118Z,78.68
2023-03-08T18:39:55.968Z,78.49
2023-03-08T18:42:25.292Z,78.60
2023-03-08T18:44:55.392Z,78.75
2023-03-08T18:47:24.816Z,79.24
2023-03-08T18:49:56.875Z,79.48
2023-03-08T18:52:26.295Z,79.13
2023-03-08T18:54:55.649Z,79.08
2023-03-08T18:57:25.066Z,79.03
2023-03-08T18:59:55.719Z,78.87
2023-03-08T19:02:28.263Z,78.31
2023-03-08T19:05:00.701Z,78.57
2023-03-08T19:07:30.481Z,78.62
2023-03-08T19:10:07.249Z,78.50
2023-03-08T19:12:37.974Z,78.22
2023-03-08T19:15:08.635Z,78.03
2023-03-08T19:17:38.099Z,78.09
2023-03-08T19:20:11.806Z,77.82
2023-03-08T19:22:41.616Z,77.84
2023-03-08T19:25:11.675Z,77.91
2023-03-08T19:27:40.966Z,78.33
2023-03-08T19:30:12.847Z,79.61
2023-03-08T19:32:42.824Z,78.71
2023-03-08T19:35:14.994Z,78.48
2023-03-08T19:37:44.233Z,79.13
2023-03-08T19:40:14.750Z,78.98
2023-03-08T19:42:43.984Z,78.84
2023-03-08T19:45:14.932Z,79.57
2023-03-08T19:47:44.155Z,79.43
2023-03-08T19:50:16.284Z,79.78
2023-03-08T19:52:45.494Z,79.88
2023-03-08T19:55:14.724Z,80.10
2023-03-08T19:57:44.097Z,80.41
2023-03-08T20:00:15.050Z,81.51
2023-03-08T20:02:45.813Z,81.37
2023-03-08T20:05:18.620Z,81.75
2023-03-08T20:07:47.952Z,81.59
2023-03-08T20:10:19.242Z,81.79
2023-03-08T20:12:49.410Z,82.10
2023-03-08T20:15:18.744Z,82.15
2023-03-08T20:17:48.379Z,82.12
2023-03-08T20:20:21.402Z,82.13
2023-03-08T20:22:50.651Z,82.56
2023-03-08T20:25:20.079Z,82.34
2023-03-08T20:27:49.336Z,82.07
2023-03-08T20:30:18.913Z,82.67
2023-03-08T20:32:48.155Z,82.71
2023-03-08T20:35:22.129Z,82.83
2023-03-08T20:37:52.718Z,82.83
2023-03-08T20:40:22.112Z,83.11
2023-03-08T20:42:51.659Z,83.03
2023-03-08T20:45:23.913Z,83.13
2023-03-08T20:47:54.390Z,83.24
2023-03-08T20:50:27.913Z,83.26
2023-03-08T20:52:57.207Z,83.16
2023-03-08T20:55:26.432Z,83.57
2023-03-08T20:57:55.637Z,83.33
2023-03-08T21:00:25.753Z,83.30
2023-03-08T21:02:55.678Z,83.08
2023-03-08T21:05:27.680Z,82.87
2023-03-08T21:07:56.896Z,82.93
2023-03-08T21:10:26.151Z,83.11
2023-03-08T21:12:55.349Z,83.26
2023-03-08T21:15:25.483Z,83.16
2023-03-08T21:17:54.852Z,83.23
2023-03-08T21:20:26.973Z,83.49
2023-03-08T21:22:56.692Z,83.95
2023-03-08T21:25:26.069Z,84.03
2023-03-08T21:27:55.351Z,84.22
2023-03-08T21:30:27.045Z,84.36
2023-03-08T21:32:56.445Z,84.67
2023-03-08T21:35:28.281Z,85.13
2023-03-08T21:37:57.502Z,85.42
2023-03-08T21:40:26.766Z,85.22
2023-03-08T21:42:56.147Z,85.68
2023-03-08T21:45:25.375Z,85.26
2023-03-08T21:47:54.590Z,84.83
2023-03-08T21:50:23.830Z,84.76
2023-03-08T21:52:55.674Z,84.43
2023-03-08T21:55:24.878Z,84.86
2023-03-08T21:57:56.905Z,85.50
2023-03-08T22:00:26.169Z,85.09
2023-03-08T22:02:55.986Z,85.48
2023-03-08T22:05:25.367Z,85.97
2023-03-08T22:07:57.330Z,86.21
2023-03-08T22:10:26.630Z,85.53
2023-03-08T22:12:56.050Z,85.92
2023-03-08T22:15:25.382Z,85.59
2023-03-08T22:17:54.876Z,84.61
2023-03-08T22:20:24.226Z,84.80
2023-03-08T22:22:53.499Z,85.11
2023-03-08T22:25:25.507Z,85.15
2023-03-08T22:27:54.809Z,85.18
2023-03-08T22:30:25.820Z,85.00
2023-03-08T22:32:55.248Z,85.03
2023-03-08T22:35:24.877Z,85.29
2023-03-08T22:37:54.139Z,85.44
2023-03-08T22:40:26.060Z,85.08
2023-03-08T22:42:55.364Z,85.10
2023-03-08T22:45:24.749Z,85.57
2023-03-08T22:47:54.372Z,85.32
2023-03-08T22:50:24.036Z,85.51
2023-03-08T22:52:53.264Z,85.41
2023-03-08T22:55:22.577Z,85.25
2023-03-08T22:57:54.386Z,85.75
2023-03-08T23:00:23.693Z,85.95
2023-03-08T23:02:54.035Z,85.13
2023-03-08T23:05:23.578Z,85.45
2023-03-08T23:07:53.321Z,85.94
2023-03-08T23:10:22.840Z,85.70
2023-03-08T23:12:54.718Z,85.49
2023-03-08T23:15:24.072Z,87.00
2023-03-08T23:17:53.317Z,86.55
2023-03-08T23:20:23.264Z,86.17
2023-03-08T23:22:53.651Z,86.13
2023-03-08T23:25:25.561Z,85.80
2023-03-08T23:27:57.559Z,85.71
2023-03-08T23:30:27.022Z,85.53
2023-03-08T23:32:56.353Z,85.97
2023-03-08T23:35:25.803Z,85.84
2023-03-08T23:37:55.065Z,85.71
2023-03-08T23:40:24.334Z,85.75
2023-03-08T23:42:53.575Z,85.49
2023-03-08T23:45:25.484Z,85.50
2023-03-08T23:47:54.774Z,85.88
2023-03-08T23:50:24.032Z,85.84
2023-03-08T23:52:53.363Z,85.72
2023-03-08T23:55:22.617Z,85.75
2023-03-08T23:57:53.688Z,86.06
